Time;durP1;ratioP1;P1;durP2;ratioP2;P2;SDS_P1;SDS_P2;PMS_P1;PMS_P2;Temp;Humidity;BMP_temperature;BMP_pressure;BME280_temperature;BME280_humidity;BME280_pressure;Samples;Min_cycle;Max_cycle;Signal;HPM_P1;HPM_P2
2022/02/28 00:01:57;;;;;;;5.93;3.93;;;5.20;99.90;;;;;;6175273;23;20195;-82
2022/02/28 00:04:25;;;;;;;8.10;4.47;;;5.20;99.90;;;;;;6174853;23;20824;-79
2022/02/28 00:06:54;;;;;;;7.63;4.60;;;5.20;99.90;;;;;;6175504;23;20171;-79
2022/02/28 00:09:21;;;;;;;8.17;4.80;;;5.10;99.90;;;;;;6176387;23;20731;-80
2022/02/28 00:11:48;;;;;;;6.07;4.30;;;5.10;99.90;;;;;;6175264;23;20257;-80
2022/02/28 00:14:15;;;;;;;6.83;4.20;;;5.10;99.90;;;;;;6176173;23;20166;-80
2022/02/28 00:16:41;;;;;;;9.90;4.40;;;5.00;99.90;;;;;;6174772;23;20181;-81
2022/02/28 00:19:08;;;;;;;7.30;4.07;;;5.00;99.90;;;;;;6175566;23;20166;-81
2022/02/28 00:21:35;;;;;;;7.63;4.67;;;5.00;99.90;;;;;;6176355;23;20171;-80
2022/02/28 00:24:03;;;;;;;7.80;4.07;;;5.00;99.90;;;;;;6176071;23;20185;-80
2022/02/28 00:26:30;;;;;;;6.17;4.50;;;5.00;99.90;;;;;;6176155;23;20170;-78
2022/02/28 00:28:57;;;;;;;5.03;3.87;;;5.00;99.90;;;;;;6175322;23;20171;-81
2022/02/28 00:31:24;;;;;;;6.63;4.23;;;4.90;99.90;;;;;;6175506;23;20186;-81
2022/02/28 00:33:51;;;;;;;9.43;4.47;;;4.90;99.90;;;;;;6174844;23;20181;-79
2022/02/28 00:36:18;;;;;;;7.87;4.20;;;4.90;99.90;;;;;;6175934;23;20473;-80
2022/02/28 00:38:45;;;;;;;6.27;4.50;;;4.80;99.90;;;;;;6174817;23;20195;-80
2022/02/28 00:41:14;;;;;;;8.13;5.33;;;4.80;99.90;;;;;;6174710;23;20191;-79
2022/02/28 00:43:41;;;;;;;8.07;4.33;;;4.80;99.90;;;;;;6174144;23;20202;-79
2022/02/28 00:46:07;;;;;;;9.87;5.40;;;4.80;99.90;;;;;;6174227;23;20178;-79
2022/02/28 00:48:34;;;;;;;7.27;4.83;;;4.70;99.90;;;;;;6174158;23;20186;-78
2022/02/28 00:51:02;;;;;;;7.73;5.20;;;4.70;99.90;;;;;;6174187;23;20560;-78
2022/02/28 00:53:29;;;;;;;8.53;4.77;;;4.70;99.90;;;;;;6173445;23;20262;-80
2022/02/28 00:55:55;;;;;;;8.77;4.90;;;4.60;99.90;;;;;;6173319;23;20885;-79
2022/02/28 00:58:24;;;;;;;7.70;5.20;;;4.60;99.90;;;;;;6174531;23;20194;-78
2022/02/28 01:00:50;;;;;;;9.53;4.40;;;4.50;99.90;;;;;;6173822;23;20201;-79
2022/02/28 01:03:18;;;;;;;8.63;5.60;;;4.50;99.90;;;;;;6175265;23;20598;-80
2022/02/28 01:05:44;;;;;;;8.13;5.07;;;4.50;99.90;;;;;;6148719;23;20175;-79
2022/02/28 01:08:11;;;;;;;7.67;4.93;;;4.50;99.90;;;;;;6193956;23;20521;-81
2022/02/28 01:10:38;;;;;;;8.27;5.47;;;4.50;99.90;;;;;;6234859;23;20740;-78
2022/02/28 01:13:10;;;;;;;7.77;4.40;;;4.50;99.90;;;;;;6236493;23;20188;-80
2022/02/28 01:15:39;;;;;;;5.53;4.50;;;4.40;99.90;;;;;;6236288;23;20231;-79
2022/02/28 01:18:07;;;;;;;6.17;5.00;;;4.40;99.90;;;;;;6238358;23;20531;-82
2022/02/28 01:20:34;;;;;;;8.10;5.77;;;4.30;99.90;;;;;;6237969;23;20504;-81
2022/02/28 01:23:01;;;;;;;12.40;6.60;;;4.30;99.90;;;;;;6237656;23;20179;-81
2022/02/28 01:25:28;;;;;;;7.80;5.10;;;4.20;99.90;;;;;;6238264;23;20177;-80
2022/02/28 01:27:55;;;;;;;8.77;5.10;;;4.10;99.90;;;;;;6237612;23;20185;-80
2022/02/28 01:30:22;;;;;;;9.03;5.10;;;4.10;99.90;;;;;;6237274;23;20467;-80
2022/02/28 01:32:50;;;;;;;6.53;5.03;;;4.10;99.90;;;;;;6238704;23;20177;-81
2022/02/28 01:35:17;;;;;;;10.10;5.33;;;4.10;99.90;;;;;;6237201;23;20173;-80
2022/02/28 01:37:45;;;;;;;7.00;4.67;;;4.10;99.90;;;;;;6237698;23;20196;-80
2022/02/28 01:40:15;;;;;;;15.27;6.00;;;4.00;99.90;;;;;;6230255;23;20198;-80
2022/02/28 01:42:42;;;;;;;9.63;5.20;;;4.00;99.90;;;;;;6206856;23;20371;-80
2022/02/28 01:45:10;;;;;;;12.60;5.67;;;4.00;99.90;;;;;;6208510;23;20590;-81
2022/02/28 01:47:37;;;;;;;7.00;5.00;;;3.90;99.90;;;;;;6207166;23;20181;-81
2022/02/28 01:50:06;;;;;;;6.13;4.83;;;3.90;99.90;;;;;;6206596;23;20586;-82
2022/02/28 01:52:33;;;;;;;10.97;4.50;;;3.90;99.90;;;;;;6207662;23;20177;-80
2022/02/28 01:55:00;;;;;;;7.00;5.23;;;3.80;99.90;;;;;;6207879;23;20571;-80
2022/02/28 01:57:27;;;;;;;11.17;5.43;;;3.80;99.90;;;;;;6206862;23;20204;-80
2022/02/28 01:59:54;;;;;;;7.40;5.10;;;3.80;99.90;;;;;;6208020;23;20166;-80
2022/02/28 02:02:20;;;;;;;9.73;5.60;;;3.80;99.90;;;;;;6207775;23;20181;-81
2022/02/28 02:04:49;;;;;;;9.30;5.53;;;3.80;99.90;;;;;;6207276;23;20177;-80
2022/02/28 02:07:17;;;;;;;11.70;5.83;;;3.70;99.90;;;;;;6207986;23;20677;-80
2022/02/28 02:09:44;;;;;;;9.73;5.50;;;3.70;99.90;;;;;;6206462;23;20724;-81
2022/02/28 02:12:12;;;;;;;7.93;5.23;;;3.70;99.90;;;;;;6207826;23;20181;-81
2022/02/28 02:14:40;;;;;;;7.80;5.10;;;3.70;99.90;;;;;;6206344;23;20226;-80
2022/02/28 02:17:06;;;;;;;7.30;4.87;;;3.70;99.90;;;;;;6205986;23;20169;-80
2022/02/28 02:19:37;;;;;;;6.37;4.97;;;3.70;99.90;;;;;;6206443;23;20560;-81
2022/02/28 02:22:06;;;;;;;8.07;5.23;;;3.60;99.90;;;;;;6206733;23;20284;-80
2022/02/28 02:24:33;;;;;;;9.87;5.53;;;3.60;99.90;;;;;;6206226;23;20656;-82
2022/02/28 02:27:00;;;;;;;13.03;6.07;;;3.60;99.90;;;;;;6205262;23;20181;-83
2022/02/28 02:29:27;;;;;;;11.20;5.60;;;3.50;99.90;;;;;;6231469;23;20212;-78
2022/02/28 02:31:54;;;;;;;7.80;5.30;;;3.50;99.90;;;;;;6235273;23;20173;-79
2022/02/28 02:34:20;;;;;;;9.90;5.47;;;3.40;99.90;;;;;;6236526;23;20174;-78
2022/02/28 02:36:47;;;;;;;8.23;5.43;;;3.40;99.90;;;;;;6235593;23;20298;-80
2022/02/28 02:39:15;;;;;;;7.73;5.03;;;3.40;99.90;;;;;;6235824;23;20705;-79
2022/02/28 02:41:43;;;;;;;8.00;4.93;;;3.40;99.90;;;;;;6208482;23;20503;-80
2022/02/28 02:44:09;;;;;;;8.33;5.40;;;3.40;99.90;;;;;;6206374;23;20178;-80
2022/02/28 02:46:46;;;;;;;11.37;5.40;;;3.30;99.90;;;;;;6204640;23;20935;-80
2022/02/28 02:49:14;;;;;;;9.40;5.90;;;3.20;99.90;;;;;;6207968;23;20184;-80
2022/02/28 02:51:41;;;;;;;6.37;4.73;;;3.20;99.90;;;;;;6207313;23;20201;-80
2022/02/28 02:54:08;;;;;;;10.13;5.77;;;3.20;99.90;;;;;;6207577;23;20583;-81
2022/02/28 02:56:36;;;;;;;9.50;5.17;;;3.10;99.90;;;;;;6206972;23;20174;-79
2022/02/28 02:59:03;;;;;;;8.70;6.17;;;3.10;99.90;;;;;;6206686;23;20194;-80
2022/02/28 03:01:30;;;;;;;9.93;5.20;;;3.10;99.90;;;;;;6205476;23;20170;-82
2022/02/28 03:03:57;;;;;;;10.90;5.03;;;3.10;99.90;;;;;;6206861;23;20184;-80
2022/02/28 03:06:25;;;;;;;7.80;5.13;;;3.10;99.90;;;;;;6207200;23;20178;-81
2022/02/28 03:08:52;;;;;;;7.40;5.17;;;3.10;99.90;;;;;;6207832;23;20174;-80
2022/02/28 03:11:19;;;;;;;7.43;5.10;;;3.10;99.90;;;;;;6207087;23;20185;-80
2022/02/28 03:13:47;;;;;;;8.77;5.40;;;3.10;99.90;;;;;;6206095;23;20182;-79
2022/02/28 03:16:14;;;;;;;7.40;5.10;;;3.10;99.90;;;;;;6206796;23;20169;-81
2022/02/28 03:18:41;;;;;;;7.73;5.30;;;3.10;99.90;;;;;;6206571;23;20191;-81
2022/02/28 03:21:08;;;;;;;10.03;5.30;;;3.10;99.90;;;;;;6206324;23;20174;-82
2022/02/28 03:23:35;;;;;;;9.30;5.27;;;3.10;99.90;;;;;;6207329;23;20185;-81
2022/02/28 03:26:02;;;;;;;8.23;5.33;;;3.10;99.90;;;;;;6206903;23;20440;-81
2022/02/28 03:28:29;;;;;;;8.60;5.07;;;3.10;99.90;;;;;;6206149;23;20220;-80
2022/02/28 03:30:57;;;;;;;8.73;4.60;;;3.10;99.90;;;;;;6207307;23;20193;-81
2022/02/28 03:33:23;;;;;;;7.80;5.60;;;3.10;99.90;;;;;;6206408;23;20177;-81
2022/02/28 03:35:50;;;;;;;6.60;5.30;;;3.10;99.90;;;;;;6206379;23;20178;-82
2022/02/28 03:38:17;;;;;;;7.67;4.73;;;3.00;99.90;;;;;;6207154;23;20201;-81
2022/02/28 03:40:44;;;;;;;7.73;4.93;;;3.00;99.90;;;;;;6207021;23;20190;-81
2022/02/28 03:43:14;;;;;;;7.43;5.47;;;3.00;99.90;;;;;;6204300;23;20178;-79
2022/02/28 03:45:41;;;;;;;10.60;6.00;;;3.00;99.90;;;;;;6205511;23;20174;-79
2022/02/28 03:48:09;;;;;;;8.00;5.37;;;3.00;99.90;;;;;;6207303;23;20180;-81
2022/02/28 03:50:36;;;;;;;7.40;5.17;;;3.00;99.90;;;;;;6206902;23;20178;-81
2022/02/28 03:53:03;;;;;;;8.87;5.80;;;2.90;99.90;;;;;;6206585;23;20178;-81
2022/02/28 03:55:30;;;;;;;8.67;5.60;;;2.90;99.90;;;;;;6205395;23;20170;-81
2022/02/28 03:57:56;;;;;;;8.87;5.27;;;2.90;99.90;;;;;;6205248;23;20574;-82
2022/02/28 04:00:23;;;;;;;7.43;5.27;;;2.90;99.90;;;;;;6205023;23;20554;-80
2022/02/28 04:02:50;;;;;;;9.80;5.40;;;2.90;99.90;;;;;;6204386;23;20174;-79
2022/02/28 04:05:19;;;;;;;8.53;5.53;;;2.90;99.90;;;;;;6205677;23;20177;-80
2022/02/28 04:07:47;;;;;;;10.57;5.70;;;2.90;99.90;;;;;;6205148;23;20236;-80
2022/02/28 04:10:14;;;;;;;8.70;5.27;;;2.90;99.90;;;;;;6204547;23;20169;-80
2022/02/28 04:12:43;;;;;;;10.73;6.03;;;2.90;99.90;;;;;;6205270;23;20175;-80
2022/02/28 04:15:10;;;;;;;8.70;5.90;;;2.90;99.90;;;;;;6206942;23;20202;-81
2022/02/28 04:17:37;;;;;;;8.97;4.87;;;2.80;99.90;;;;;;6205666;23;20196;-81
2022/02/28 04:20:04;;;;;;;11.10;5.30;;;2.80;99.90;;;;;;6205969;23;20205;-81
2022/02/28 04:22:33;;;;;;;14.23;5.57;;;2.80;99.90;;;;;;6206087;23;20214;-79
2022/02/28 04:25:00;;;;;;;7.73;5.37;;;2.80;99.90;;;;;;6205042;23;20177;-82
2022/02/28 04:27:26;;;;;;;8.50;6.00;;;2.80;99.90;;;;;;6205885;23;20440;-81
2022/02/28 04:29:53;;;;;;;10.10;5.70;;;2.80;99.90;;;;;;6205804;23;20198;-81
2022/02/28 04:32:20;;;;;;;9.30;5.57;;;2.80;99.90;;;;;;6206406;23;20188;-83
2022/02/28 04:34:47;;;;;;;9.77;5.67;;;2.80;99.90;;;;;;6207068;23;20174;-80
2022/02/28 04:37:14;;;;;;;7.33;5.13;;;2.80;99.90;;;;;;6206939;23;20170;-81
2022/02/28 04:39:42;;;;;;;7.40;4.83;;;2.80;99.90;;;;;;6205715;23;20204;-80
2022/02/28 04:42:09;;;;;;;10.37;4.70;;;2.80;99.90;;;;;;6206972;23;20174;-81
2022/02/28 04:44:36;;;;;;;7.13;5.07;;;2.90;99.90;;;;;;6207496;23;20170;-81
2022/02/28 04:47:03;;;;;;;10.07;4.73;;;2.80;99.90;;;;;;6205393;23;20166;-81
2022/02/28 04:49:30;;;;;;;8.90;5.33;;;2.80;99.90;;;;;;6206584;23;20550;-79
2022/02/28 04:51:56;;;;;;;11.97;5.17;;;2.80;99.90;;;;;;6213080;23;20166;-81
2022/02/28 04:54:23;;;;;;;7.80;4.97;;;2.80;99.90;;;;;;6213958;23;20174;-80
2022/02/28 04:56:51;;;;;;;7.80;5.57;;;2.80;99.90;;;;;;6213103;23;20170;-80
2022/02/28 04:59:18;;;;;;;7.87;4.50;;;2.80;99.90;;;;;;6211244;23;20194;-80
2022/02/28 05:01:45;;;;;;;7.10;5.10;;;2.80;99.90;;;;;;6213471;23;20178;-80
2022/02/28 05:04:11;;;;;;;8.30;4.57;;;2.80;99.90;;;;;;6211092;23;20174;-79
2022/02/28 05:06:38;;;;;;;7.63;5.10;;;2.80;99.90;;;;;;6210479;23;20166;-79
2022/02/28 05:09:05;;;;;;;7.63;5.17;;;2.80;99.90;;;;;;6209855;23;20174;-80
2022/02/28 05:11:32;;;;;;;9.93;5.13;;;2.80;99.90;;;;;;6207981;23;20184;-80
2022/02/28 05:14:00;;;;;;;7.37;5.03;;;2.80;99.90;;;;;;6207498;23;20284;-79
2022/02/28 05:16:27;;;;;;;7.70;5.50;;;2.80;99.90;;;;;;6208135;23;20474;-82
2022/02/28 05:18:54;;;;;;;6.57;4.60;;;2.80;99.90;;;;;;6208180;23;20194;-80
2022/02/28 05:21:21;;;;;;;8.17;4.97;;;2.80;99.90;;;;;;6208302;23;20174;-79
2022/02/28 05:23:47;;;;;;;7.87;5.47;;;2.90;99.90;;;;;;6207431;23;20170;-82
2022/02/28 05:26:14;;;;;;;8.27;4.57;;;2.80;99.90;;;;;;6208615;23;20181;-81
2022/02/28 05:28:41;;;;;;;7.10;5.07;;;2.80;99.90;;;;;;6206499;23;20197;-81
2022/02/28 05:31:09;;;;;;;8.57;5.30;;;2.80;99.90;;;;;;6207777;23;20169;-82
2022/02/28 05:33:36;;;;;;;9.37;4.83;;;2.90;99.90;;;;;;6207732;23;20590;-79
2022/02/28 05:36:03;;;;;;;7.53;5.07;;;2.90;99.90;;;;;;6206586;23;20170;-79
2022/02/28 05:38:30;;;;;;;9.80;4.70;;;2.90;99.90;;;;;;6207267;23;20194;-78
2022/02/28 05:40:57;;;;;;;11.23;5.80;;;2.80;99.90;;;;;;6206959;23;20206;-82
2022/02/28 05:43:24;;;;;;;7.73;4.83;;;2.80;99.90;;;;;;6208500;23;20180;-79
2022/02/28 05:45:51;;;;;;;7.87;4.87;;;2.80;99.90;;;;;;6208198;23;20216;-82
2022/02/28 05:48:19;;;;;;;10.17;5.43;;;2.80;99.90;;;;;;6208800;23;20492;-79
2022/02/28 05:50:46;;;;;;;7.13;4.47;;;2.80;99.90;;;;;;6209153;23;20180;-81
2022/02/28 05:53:13;;;;;;;6.63;5.27;;;2.70;99.90;;;;;;6209343;23;20174;-80
2022/02/28 05:55:40;;;;;;;8.43;5.23;;;2.70;99.90;;;;;;6208044;23;20189;-79
2022/02/28 05:58:07;;;;;;;8.97;4.97;;;2.70;99.90;;;;;;6209665;23;20193;-79
2022/02/28 06:00:34;;;;;;;7.80;5.43;;;2.60;99.90;;;;;;6208574;23;20204;-80
2022/02/28 06:03:00;;;;;;;8.23;5.90;;;2.70;99.90;;;;;;6205987;23;20185;-81
2022/02/28 06:05:29;;;;;;;7.60;5.10;;;2.60;99.90;;;;;;6207692;23;20194;-81
2022/02/28 06:07:55;;;;;;;9.10;5.50;;;2.60;99.90;;;;;;6206238;23;20187;-82
2022/02/28 06:10:22;;;;;;;18.60;6.63;;;2.60;99.90;;;;;;6206118;23;20171;-82
2022/02/28 06:12:49;;;;;;;8.57;5.13;;;2.60;99.90;;;;;;6205572;23;20169;-82
2022/02/28 06:15:16;;;;;;;7.47;5.23;;;2.50;99.90;;;;;;6205739;23;20172;-80
2022/02/28 06:17:42;;;;;;;9.67;5.27;;;2.50;99.90;;;;;;6204911;23;20178;-81
2022/02/28 06:20:10;;;;;;;10.40;5.67;;;2.50;99.90;;;;;;6207152;23;20209;-80
2022/02/28 06:22:38;;;;;;;7.37;4.87;;;2.50;99.90;;;;;;6205773;23;20189;-83
2022/02/28 06:25:06;;;;;;;7.23;4.93;;;2.40;99.90;;;;;;6206806;23;20174;-81
2022/02/28 06:27:33;;;;;;;8.60;4.70;;;2.50;99.90;;;;;;6207811;23;20181;-83
2022/02/28 06:29:59;;;;;;;10.33;5.37;;;2.40;99.90;;;;;;6208228;23;20181;-82
2022/02/28 06:32:26;;;;;;;10.07;5.07;;;2.40;99.90;;;;;;6206361;23;20193;-80
2022/02/28 06:34:55;;;;;;;7.07;5.40;;;2.40;99.90;;;;;;6205980;23;20170;-80
2022/02/28 06:37:22;;;;;;;7.30;5.40;;;2.30;99.90;;;;;;6204958;23;20170;-81
2022/02/28 06:39:50;;;;;;;9.83;5.60;;;2.30;99.90;;;;;;6204880;23;20221;-81
2022/02/28 06:42:17;;;;;;;7.63;5.07;;;2.30;99.90;;;;;;6205913;23;20166;-81
2022/02/28 06:44:44;;;;;;;10.10;4.63;;;2.30;99.90;;;;;;6204545;23;20311;-81
2022/02/28 06:47:10;;;;;;;10.20;5.50;;;2.30;99.90;;;;;;6205830;23;20184;-80
2022/02/28 06:49:37;;;;;;;8.97;5.27;;;2.30;99.90;;;;;;6205261;23;20186;-81
2022/02/28 06:52:05;;;;;;;11.37;6.10;;;2.30;99.90;;;;;;6203976;23;20166;-77
2022/02/28 06:54:32;;;;;;;8.57;5.53;;;2.30;99.90;;;;;;6205499;23;20167;-81
2022/02/28 06:57:00;;;;;;;9.73;6.27;;;2.30;99.90;;;;;;6205422;23;20463;-79
2022/02/28 06:59:26;;;;;;;11.07;5.47;;;2.40;99.90;;;;;;6204885;23;20205;-80
2022/02/28 07:01:53;;;;;;;7.73;5.13;;;2.40;99.90;;;;;;6205722;23;20181;-79
2022/02/28 07:04:20;;;;;;;9.67;5.43;;;2.40;99.90;;;;;;6205636;23;20185;-82
2022/02/28 07:06:47;;;;;;;7.83;5.17;;;2.40;99.90;;;;;;6204233;23;20757;-79
2022/02/28 07:09:14;;;;;;;9.03;5.70;;;2.50;99.90;;;;;;6205226;23;20166;-80
2022/02/28 07:11:41;;;;;;;9.10;5.93;;;2.40;99.90;;;;;;6203997;23;20173;-80
2022/02/28 07:14:09;;;;;;;8.97;5.10;;;2.50;99.90;;;;;;6205048;23;20184;-81
2022/02/28 07:16:36;;;;;;;7.93;5.43;;;2.50;99.90;;;;;;6206601;23;20185;-81
2022/02/28 07:19:04;;;;;;;11.70;6.13;;;2.50;99.90;;;;;;6206389;23;20198;-81
2022/02/28 07:21:31;;;;;;;7.63;5.20;;;2.50;99.90;;;;;;6207140;23;20173;-80
2022/02/28 07:23:58;;;;;;;9.07;6.10;;;2.60;99.90;;;;;;6204609;23;20174;-79
2022/02/28 07:26:25;;;;;;;7.83;5.40;;;2.60;99.90;;;;;;6201978;23;20170;-80
2022/02/28 07:28:52;;;;;;;9.03;5.47;;;2.60;99.90;;;;;;6203586;23;20202;-81
2022/02/28 07:31:20;;;;;;;11.10;6.00;;;2.60;99.90;;;;;;6208226;23;20174;-81
2022/02/28 07:33:48;;;;;;;10.37;6.03;;;2.70;99.90;;;;;;6206289;23;20171;-82
2022/02/28 07:36:16;;;;;;;8.23;5.43;;;2.70;99.90;;;;;;6207785;23;20182;-82
2022/02/28 07:38:43;;;;;;;8.20;6.17;;;2.70;99.90;;;;;;6207973;23;20177;-82
2022/02/28 07:41:10;;;;;;;12.27;6.30;;;2.80;99.90;;;;;;6206615;23;20201;-82
2022/02/28 07:43:37;;;;;;;7.63;5.37;;;2.80;99.90;;;;;;6205325;23;20166;-81
2022/02/28 07:46:04;;;;;;;8.63;5.63;;;2.80;99.90;;;;;;6206112;23;20162;-82
2022/02/28 07:48:32;;;;;;;8.53;5.93;;;2.90;99.90;;;;;;6209187;23;20182;-81
2022/02/28 07:50:59;;;;;;;10.33;5.70;;;2.90;99.90;;;;;;6208071;23;20171;-82
2022/02/28 07:53:26;;;;;;;9.17;5.70;;;2.90;99.90;;;;;;6209237;23;20486;-82
2022/02/28 07:55:53;;;;;;;9.43;5.67;;;2.90;99.90;;;;;;6207054;23;20446;-81
2022/02/28 07:58:19;;;;;;;10.00;6.07;;;2.90;99.90;;;;;;6205725;23;20186;-81
2022/02/28 08:00:46;;;;;;;9.33;5.50;;;3.00;99.90;;;;;;6205111;23;20205;-82
2022/02/28 08:03:13;;;;;;;9.40;5.27;;;3.00;99.90;;;;;;6205799;23;20195;-81
2022/02/28 08:05:41;;;;;;;10.27;5.53;;;3.10;99.90;;;;;;6203878;23;20197;-81
2022/02/28 08:08:08;;;;;;;9.53;6.47;;;3.10;99.90;;;;;;6202701;23;20185;-84
2022/02/28 08:10:37;;;;;;;13.30;6.47;;;3.20;99.90;;;;;;6204553;23;20208;-81
2022/02/28 08:13:04;;;;;;;8.00;5.53;;;3.30;99.90;;;;;;6204084;23;20663;-81
2022/02/28 08:15:31;;;;;;;8.27;5.67;;;3.30;99.90;;;;;;6204804;23;20229;-84
2022/02/28 08:17:57;;;;;;;8.10;5.63;;;3.40;99.90;;;;;;6202533;23;20181;-81
2022/02/28 08:20:24;;;;;;;9.10;5.73;;;3.40;99.90;;;;;;6203868;23;20204;-82
2022/02/28 08:22:53;;;;;;;7.33;5.40;;;3.40;99.90;;;;;;6205187;23;20249;-83
2022/02/28 08:25:20;;;;;;;8.40;5.33;;;3.50;99.90;;;;;;6206155;23;20188;-83
2022/02/28 08:27:46;;;;;;;9.00;6.37;;;3.50;99.90;;;;;;6204771;23;20188;-81
2022/02/28 08:30:14;;;;;;;8.50;5.07;;;3.60;99.90;;;;;;6205194;23;20174;-82
2022/02/28 08:32:41;;;;;;;11.27;5.90;;;3.60;99.90;;;;;;6206399;23;20290;-82
2022/02/28 08:35:08;;;;;;;8.57;5.43;;;3.70;99.90;;;;;;6207974;23;20200;-82
2022/02/28 08:37:35;;;;;;;11.93;6.13;;;3.70;99.90;;;;;;6204879;23;20166;-82
2022/02/28 08:40:04;;;;;;;8.17;5.40;;;3.80;99.90;;;;;;6203842;23;20633;-80
2022/02/28 08:42:31;;;;;;;12.40;5.57;;;3.80;99.90;;;;;;6204668;23;20191;-79
2022/02/28 08:45:00;;;;;;;10.90;5.87;;;3.90;99.90;;;;;;6203105;23;20504;-80
2022/02/28 08:47:27;;;;;;;6.47;5.33;;;4.00;99.90;;;;;;6229431;23;20213;-78
2022/02/28 08:49:53;;;;;;;8.40;5.70;;;4.00;99.90;;;;;;6235623;23;20169;-80
2022/02/28 08:52:20;;;;;;;9.50;5.80;;;4.10;99.90;;;;;;6234808;23;20166;-80
2022/02/28 08:54:47;;;;;;;6.50;5.47;;;4.20;99.90;;;;;;6234765;23;20169;-80
2022/02/28 08:57:16;;;;;;;7.77;5.70;;;4.20;99.90;;;;;;6234568;23;20165;-80
2022/02/28 08:59:42;;;;;;;12.93;5.63;;;4.30;99.90;;;;;;6234230;23;20201;-80
2022/02/28 09:02:09;;;;;;;10.30;6.13;;;4.30;99.90;;;;;;6235475;23;20643;-79
2022/02/28 09:04:36;;;;;;;10.40;5.90;;;4.40;99.90;;;;;;6235805;23;20184;-79
2022/02/28 09:07:03;;;;;;;7.03;5.67;;;4.50;99.90;;;;;;6235057;23;20574;-79
2022/02/28 09:09:30;;;;;;;9.83;5.97;;;4.50;99.90;;;;;;6235677;23;20176;-80
2022/02/28 09:11:57;;;;;;;9.40;6.17;;;4.60;99.90;;;;;;6234601;23;20589;-80
2022/02/28 09:14:25;;;;;;;8.93;6.00;;;4.70;99.90;;;;;;6236905;23;20185;-81
2022/02/28 09:16:52;;;;;;;8.33;6.10;;;4.80;99.90;;;;;;6235791;23;20169;-80
2022/02/28 09:19:19;;;;;;;10.00;5.60;;;4.90;99.90;;;;;;6235438;23;20184;-80
2022/02/28 09:21:46;;;;;;;8.27;6.13;;;5.00;99.90;;;;;;6235506;23;20747;-80
2022/02/28 09:24:13;;;;;;;8.77;5.50;;;5.00;99.90;;;;;;6236460;23;20899;-82
2022/02/28 09:26:40;;;;;;;7.60;5.53;;;5.10;99.90;;;;;;6236379;23;20174;-80
2022/02/28 09:29:07;;;;;;;8.13;5.17;;;5.10;99.90;;;;;;6236695;23;20184;-80
2022/02/28 09:31:35;;;;;;;8.37;5.50;;;5.30;99.90;;;;;;6236190;23;20200;-82
2022/02/28 09:34:02;;;;;;;7.17;5.43;;;5.30;99.90;;;;;;6234295;23;20181;-81
2022/02/28 09:36:29;;;;;;;7.10;6.07;;;5.40;99.90;;;;;;6235585;23;20836;-81
2022/02/28 09:38:57;;;;;;;8.03;5.53;;;5.50;99.90;;;;;;6238630;23;20173;-81
2022/02/28 09:41:24;;;;;;;7.50;5.73;;;5.60;99.90;;;;;;6213291;23;20229;-83
2022/02/28 09:43:52;;;;;;;9.83;5.83;;;5.70;99.90;;;;;;6209737;23;20182;-81
2022/02/28 09:46:19;;;;;;;8.17;5.77;;;5.70;99.90;;;;;;6209708;23;20517;-80
2022/02/28 09:48:48;;;;;;;8.30;5.90;;;5.80;99.90;;;;;;6208053;23;20181;-80
2022/02/28 09:51:15;;;;;;;8.83;5.70;;;5.90;99.90;;;;;;6207995;23;20508;-81
2022/02/28 09:53:42;;;;;;;7.73;5.23;;;6.00;99.90;;;;;;6209084;23;20183;-82
2022/02/28 09:56:09;;;;;;;7.93;5.70;;;6.00;99.90;;;;;;6209181;23;20163;-81
2022/02/28 09:58:36;;;;;;;8.37;5.73;;;6.10;99.90;;;;;;6210836;23;20184;-81
2022/02/28 10:01:03;;;;;;;13.53;6.93;;;6.10;99.90;;;;;;6209895;23;20284;-81
2022/02/28 10:03:31;;;;;;;9.60;6.13;;;6.30;99.90;;;;;;6209420;23;20181;-82
2022/02/28 10:06:01;;;;;;;8.37;5.90;;;6.30;99.90;;;;;;6210688;23;20184;-83
2022/02/28 10:08:41;;;;;;;9.00;5.90;;;6.40;99.90;;;;;;6210144;23;20244;-82
2022/02/28 10:11:23;;;;;;;6.40;5.53;;;6.50;99.90;;;;;;6207853;23;20166;-82
2022/02/28 10:13:51;;;;;;;8.93;6.07;;;6.60;99.90;;;;;;6205604;23;20712;-81
2022/02/28 10:16:34;;;;;;;14.53;5.93;;;6.70;99.90;;;;;;6206180;23;20185;-80
2022/02/28 10:19:02;;;;;;;9.77;5.60;;;6.80;99.90;;;;;;6203232;23;20178;-81
2022/02/28 10:21:39;;;;;;;8.13;5.77;;;6.90;99.90;;;;;;6207669;23;20737;-80
2022/02/28 10:24:08;;;;;;;11.50;6.17;;;7.00;99.90;;;;;;6206809;23;20221;-82
2022/02/28 10:26:43;;;;;;;10.07;6.20;;;7.10;99.90;;;;;;6207340;23;20213;-82
2022/02/28 10:29:12;;;;;;;9.60;6.30;;;7.30;99.90;;;;;;6207445;23;20174;-81
2022/02/28 10:31:41;;;;;;;8.40;6.10;;;7.40;99.90;;;;;;6205971;23;20181;-79
2022/02/28 10:34:16;;;;;;;7.97;5.63;;;7.50;99.90;;;;;;6207147;23;20421;-81
2022/02/28 10:36:47;;;;;;;9.30;6.07;;;7.70;99.90;;;;;;6206986;23;20174;-81
2022/02/28 10:39:15;;;;;;;9.07;5.77;;;7.80;99.90;;;;;;6209195;23;20175;-82
2022/02/28 10:41:45;;;;;;;7.57;5.40;;;7.90;99.90;;;;;;6207671;23;20289;-82
2022/02/28 10:44:13;;;;;;;7.83;5.70;;;7.90;99.90;;;;;;6207423;23;20177;-80
2022/02/28 10:46:43;;;;;;;9.40;5.47;;;7.90;99.90;;;;;;6206933;23;20212;-81
2022/02/28 10:49:16;;;;;;;10.23;6.20;;;8.00;99.90;;;;;;6206349;23;20170;-82
2022/02/28 10:51:49;;;;;;;8.13;6.20;;;8.10;99.90;;;;;;6205936;23;20579;-81
2022/02/28 10:54:20;;;;;;;8.93;6.57;;;8.30;99.90;;;;;;6206708;23;20177;-80
2022/02/28 10:56:59;;;;;;;9.13;6.33;;;8.40;99.90;;;;;;6207290;23;20224;-82
2022/02/28 10:59:27;;;;;;;9.63;5.70;;;8.50;99.90;;;;;;6207898;23;20170;-83
2022/02/28 11:01:55;;;;;;;8.67;6.00;;;8.70;99.90;;;;;;6206224;23;20213;-82
2022/02/28 11:04:32;;;;;;;9.40;6.07;;;8.70;99.90;;;;;;6206021;23;20166;-82
2022/02/28 11:07:01;;;;;;;9.17;5.83;;;8.70;99.90;;;;;;6205359;23;20170;-82
2022/02/28 11:09:34;;;;;;;7.80;6.43;;;8.90;99.90;;;;;;6205206;23;20173;-80
2022/02/28 11:12:26;;;;;;;10.37;5.63;;;9.00;99.90;;;;;;6204698;23;20174;-79
2022/02/28 11:14:55;;;;;;;10.47;6.10;;;9.10;99.90;;;;;;6204631;23;20171;-80
2022/02/28 11:17:23;;;;;;;8.67;6.40;;;9.10;99.90;;;;;;6205280;23;20424;-80
2022/02/28 11:19:51;;;;;;;9.27;5.80;;;9.20;99.90;;;;;;6204169;23;20170;-81
2022/02/28 11:22:20;;;;;;;6.60;5.57;;;9.30;99.90;;;;;;6204438;23;20221;-82
2022/02/28 11:24:47;;;;;;;7.73;5.80;;;9.30;99.90;;;;;;6204915;23;20173;-81
2022/02/28 11:27:15;;;;;;;9.43;6.07;;;9.30;99.90;;;;;;6205272;23;20181;-78
2022/02/28 11:29:43;;;;;;;9.23;6.33;;;9.40;99.90;;;;;;6205923;23;20210;-81
2022/02/28 11:32:11;;;;;;;7.30;5.57;;;9.40;99.90;;;;;;6206012;23;20170;-80
2022/02/28 11:34:39;;;;;;;8.63;6.07;;;9.50;99.90;;;;;;6206147;23;20178;-79
2022/02/28 11:37:08;;;;;;;7.87;5.97;;;9.70;99.90;;;;;;6205937;23;20209;-80
2022/02/28 11:39:40;;;;;;;9.20;6.20;;;9.60;99.90;;;;;;6205040;23;20692;-80
2022/02/28 11:42:09;;;;;;;9.53;6.50;;;9.50;99.90;;;;;;6205094;23;20190;-80
2022/02/28 11:44:37;;;;;;;8.57;5.93;;;9.50;99.90;;;;;;6204518;23;20205;-81
2022/02/28 11:47:13;;;;;;;12.07;6.53;;;9.60;99.90;;;;;;6202579;23;20225;-79
2022/02/28 11:49:42;;;;;;;8.50;6.10;;;9.70;99.90;;;;;;6204148;23;20220;-80
2022/02/28 11:52:33;;;;;;;10.00;6.90;;;9.70;99.90;;;;;;6204682;23;20170;-77
2022/02/28 11:55:05;;;;;;;9.50;6.57;;;9.70;99.90;;;;;;6173474;23;20178;-79
2022/02/28 11:57:52;;;;;;;8.47;6.27;;;9.80;99.90;;;;;;6205062;23;20268;-79
2022/02/28 12:00:39;;;;;;;15.57;6.40;;;10.00;99.90;;;;;;6204265;23;20411;-79
2022/02/28 12:03:10;;;;;;;5.63;5.13;;;10.00;99.90;;;;;;6204322;23;20278;-80
2022/02/28 12:05:42;;;;;;;8.07;6.40;;;10.10;99.90;;;;;;6204909;23;20166;-79
2022/02/28 12:08:12;;;;;;;8.60;6.13;;;10.20;99.90;;;;;;6203362;23;20178;-79
2022/02/28 12:10:43;;;;;;;6.60;5.90;;;10.20;99.90;;;;;;6205092;23;20201;-79
2022/02/28 12:13:09;;;;;;;8.30;5.77;;;10.20;99.90;;;;;;6204418;23;20177;-79
2022/02/28 12:15:36;;;;;;;9.80;6.13;;;10.40;99.90;;;;;;6204177;23;20185;-81
2022/02/28 12:18:06;;;;;;;7.87;5.93;;;10.50;99.90;;;;;;6204700;23;20174;-79
2022/02/28 12:20:38;;;;;;;8.07;6.00;;;10.60;99.90;;;;;;6201830;23;20177;-79
2022/02/28 12:23:25;;;;;;;9.20;5.93;;;10.70;99.90;;;;;;6203063;23;20173;-80
2022/02/28 12:26:10;;;;;;;9.07;6.00;;;10.80;99.90;;;;;;6202663;23;20162;-79
2022/02/28 12:28:53;;;;;;;7.00;5.33;;;10.80;99.90;;;;;;6203312;23;20598;-79
2022/02/28 12:31:35;;;;;;;8.53;6.53;;;10.80;99.90;;;;;;6204213;23;20166;-79
2022/02/28 12:34:06;;;;;;;7.20;5.90;;;10.70;99.90;;;;;;6204385;23;20241;-77
2022/02/28 12:36:33;;;;;;;10.67;6.13;;;10.40;99.90;;;;;;6204031;23;20209;-80
2022/02/28 12:39:12;;;;;;;7.80;5.60;;;10.50;99.90;;;;;;6203766;23;20166;-77
2022/02/28 12:41:43;;;;;;;6.53;5.60;;;10.70;99.90;;;;;;6203192;23;20204;-78
2022/02/28 12:44:13;;;;;;;9.23;6.17;;;10.80;99.90;;;;;;6203350;23;20177;-78
2022/02/28 12:46:43;;;;;;;7.80;5.90;;;10.80;99.90;;;;;;6203105;23;20206;-78
2022/02/28 12:49:11;;;;;;;10.13;5.70;;;10.90;99.90;;;;;;6203336;23;20260;-79
2022/02/28 12:51:40;;;;;;;7.23;6.00;;;10.90;99.90;;;;;;6202982;23;20166;-79
2022/02/28 12:54:09;;;;;;;7.63;6.70;;;11.00;99.90;;;;;;6203964;23;20174;-79
2022/02/28 12:56:43;;;;;;;7.93;5.50;;;10.90;99.90;;;;;;6203517;23;20181;-78
2022/02/28 12:59:11;;;;;;;7.97;5.60;;;11.00;99.90;;;;;;6203552;23;20196;-79
2022/02/28 13:01:39;;;;;;;11.20;6.43;;;11.00;99.90;;;;;;6203853;23;20194;-79